createdAt,value
2019-02-28T00:00:37.207Z,9.30
2019-02-28T00:03:05.356Z,9.30
2019-02-28T00:05:33.801Z,9.20
2019-02-28T00:08:02.247Z,9.20
2019-02-28T00:10:30.859Z,9.10
2019-02-28T00:12:59.876Z,9.00
2019-02-28T00:15:29.644Z,9.00
2019-02-28T00:17:58.497Z,9.00
2019-02-28T00:20:29.129Z,8.90
2019-02-28T00:22:57.089Z,8.90
2019-02-28T00:25:25.517Z,8.80
2019-02-28T00:27:53.965Z,8.80
2019-02-28T00:30:22.374Z,8.70
2019-02-28T00:32:50.804Z,8.70
2019-02-28T00:35:19.242Z,8.60
2019-02-28T00:37:47.661Z,8.50
2019-02-28T00:40:16.121Z,8.50
2019-02-28T00:42:44.593Z,8.40
2019-02-28T00:45:15.045Z,8.40
2019-02-28T00:47:43.472Z,8.30
2019-02-28T00:50:12.157Z,8.30
2019-02-28T00:52:40.573Z,8.20
2019-02-28T00:55:14.497Z,8.20
2019-02-28T00:57:43.738Z,8.20
2019-02-28T01:00:17.398Z,8.10
2019-02-28T01:02:45.843Z,8.00
2019-02-28T01:05:14.908Z,8.00
2019-02-28T01:07:43.459Z,8.00
2019-02-28T01:10:12.939Z,7.90
2019-02-28T01:12:41.365Z,7.90
2019-02-28T01:15:14.721Z,7.90
2019-02-28T01:17:43.174Z,7.90
2019-02-28T01:20:14.762Z,7.90
2019-02-28T01:22:42.032Z,7.90
2019-02-28T01:25:13.205Z,8.00
2019-02-28T01:27:41.673Z,8.00
2019-02-28T01:30:12.505Z,8.00
2019-02-28T01:32:41.011Z,8.00
2019-02-28T01:35:09.506Z,8.00
2019-02-28T01:37:37.927Z,8.00
2019-02-28T01:40:08.988Z,8.10
2019-02-28T01:42:37.449Z,8.10
2019-02-28T01:45:09.886Z,8.10
2019-02-28T01:47:38.979Z,8.10
2019-02-28T01:50:09.241Z,8.10
2019-02-28T01:52:37.665Z,8.10
2019-02-28T01:55:08.129Z,8.10
2019-02-28T01:57:39.312Z,8.00
2019-02-28T02:00:09.780Z,8.00
2019-02-28T02:02:39.126Z,7.90
2019-02-28T02:05:07.736Z,7.90
2019-02-28T02:07:36.276Z,7.80
2019-02-28T02:10:09.758Z,7.70
2019-02-28T02:12:38.205Z,7.70
2019-02-28T02:15:09.438Z,7.60
2019-02-28T02:17:37.886Z,7.50
2019-02-28T02:20:09.422Z,7.50
2019-02-28T02:22:40.748Z,7.50
2019-02-28T02:25:09.045Z,7.50
2019-02-28T02:27:37.495Z,7.40
2019-02-28T02:30:14.138Z,7.50
2019-02-28T02:32:39.240Z,7.40
2019-02-28T02:35:08.522Z,7.50
2019-02-28T02:37:36.980Z,7.50
2019-02-28T02:40:08.623Z,7.50
2019-02-28T02:42:37.040Z,7.40
2019-02-28T02:45:07.613Z,7.30
2019-02-28T02:47:36.240Z,7.30
2019-02-28T02:50:07.293Z,7.20
2019-02-28T02:52:35.711Z,7.20
2019-02-28T02:55:05.597Z,7.10
2019-02-28T02:57:34.011Z,7.10
2019-02-28T03:00:02.529Z,7.10
2019-02-28T03:02:33.124Z,7.00
2019-02-28T03:05:01.111Z,7.00
2019-02-28T03:07:29.514Z,6.90
2019-02-28T03:09:57.984Z,6.90
2019-02-28T03:12:31.183Z,6.90
2019-02-28T03:14:56.563Z,6.90
2019-02-28T03:17:24.984Z,6.80
2019-02-28T03:19:53.431Z,6.90
2019-02-28T03:22:28.267Z,6.80
2019-02-28T03:24:52.367Z,6.80
2019-02-28T03:27:20.798Z,6.80
2019-02-28T03:29:49.303Z,6.80
2019-02-28T03:32:17.714Z,6.70
2019-02-28T03:34:55.458Z,6.70
2019-02-28T03:37:16.313Z,6.70
2019-02-28T03:39:44.750Z,6.70
2019-02-28T03:42:13.191Z,6.60
2019-02-28T03:44:41.594Z,6.60
2019-02-28T03:47:10.025Z,6.60
2019-02-28T03:49:38.485Z,6.50
2019-02-28T03:52:07.014Z,6.50
2019-02-28T03:54:35.469Z,6.50
2019-02-28T03:57:03.977Z,6.50
2019-02-28T03:59:32.472Z,6.50
2019-02-28T04:02:00.984Z,6.50
2019-02-28T04:04:29.545Z,6.50
2019-02-28T04:06:57.979Z,6.40
2019-02-28T04:09:26.468Z,6.40
2019-02-28T04:11:54.904Z,6.30
2019-02-28T04:14:23.388Z,6.30
2019-02-28T04:16:54.151Z,6.30
2019-02-28T04:19:23.093Z,6.30
2019-02-28T04:21:51.623Z,6.30
2019-02-28T04:24:20.037Z,6.20
2019-02-28T04:26:48.458Z,6.20
2019-02-28T04:29:16.896Z,6.20
2019-02-28T04:31:45.326Z,6.20
2019-02-28T04:34:14.439Z,6.20
2019-02-28T04:36:42.915Z,6.20
2019-02-28T04:39:11.418Z,6.30
2019-02-28T04:41:39.847Z,6.30
2019-02-28T04:44:08.270Z,6.30
2019-02-28T04:46:36.721Z,6.30
2019-02-28T04:49:05.137Z,6.20
2019-02-28T04:51:33.556Z,6.20
2019-02-28T04:54:01.993Z,6.20
2019-02-28T04:56:30.437Z,6.10
2019-02-28T04:58:59.573Z,6.10
2019-02-28T05:01:28.699Z,6.10
2019-02-28T05:03:59.205Z,6.00
2019-02-28T05:06:27.312Z,6.00
2019-02-28T05:08:55.765Z,6.00
2019-02-28T05:11:24.189Z,5.90
2019-02-28T05:13:52.640Z,5.90
2019-02-28T05:16:21.064Z,5.90
2019-02-28T05:18:49.497Z,5.90
2019-02-28T05:21:19.568Z,5.90
2019-02-28T05:23:48.078Z,6.00
2019-02-28T05:26:16.497Z,5.90
2019-02-28T05:28:44.941Z,5.90
2019-02-28T05:31:13.396Z,5.90
2019-02-28T05:33:42.755Z,5.90
2019-02-28T05:36:11.309Z,5.90
2019-02-28T05:38:39.728Z,5.90
2019-02-28T05:41:08.165Z,5.90
2019-02-28T05:43:36.588Z,5.90
2019-02-28T05:46:05.019Z,5.90
2019-02-28T05:48:35.337Z,5.90
2019-02-28T05:51:03.605Z,5.90
2019-02-28T05:53:32.017Z,5.90
2019-02-28T05:56:00.447Z,6.00
2019-02-28T05:58:28.885Z,6.00
2019-02-28T06:00:57.382Z,6.00
2019-02-28T06:03:25.793Z,6.00
2019-02-28T06:05:54.245Z,6.00
2019-02-28T06:08:22.668Z,6.00
2019-02-28T06:10:51.093Z,6.00
2019-02-28T06:13:19.533Z,6.00
2019-02-28T06:15:47.981Z,5.90
2019-02-28T06:18:16.401Z,6.00
2019-02-28T06:20:44.844Z,6.00
2019-02-28T06:23:13.265Z,6.00
2019-02-28T06:25:41.702Z,6.00
2019-02-28T06:28:12.003Z,6.00
2019-02-28T06:30:41.398Z,6.00
2019-02-28T06:33:10.401Z,6.00
2019-02-28T06:35:38.858Z,5.90
2019-02-28T06:38:07.290Z,5.90
2019-02-28T06:40:35.701Z,5.90
2019-02-28T06:43:04.153Z,5.90
2019-02-28T06:45:36.662Z,5.90
2019-02-28T06:48:02.799Z,5.90
2019-02-28T06:50:31.220Z,5.90
2019-02-28T06:52:59.954Z,5.90
2019-02-28T06:55:28.380Z,5.90
2019-02-28T06:57:58.988Z,5.90
2019-02-28T07:00:27.049Z,5.90
2019-02-28T07:02:55.557Z,6.00
2019-02-28T07:05:25.765Z,6.10
2019-02-28T07:07:54.174Z,6.20
2019-02-28T07:10:22.585Z,6.30
2019-02-28T07:12:51.097Z,6.40
2019-02-28T07:15:23.487Z,6.50
2019-02-28T07:17:49.818Z,6.50
2019-02-28T07:20:19.187Z,6.60
2019-02-28T07:22:47.815Z,6.70
2019-02-28T07:25:16.236Z,6.80
2019-02-28T07:27:44.648Z,6.80
2019-02-28T07:30:18.460Z,6.90
2019-02-28T07:32:45.274Z,7.00
2019-02-28T07:35:13.849Z,7.10
2019-02-28T07:37:42.357Z,7.10
2019-02-28T07:40:16.227Z,7.20
2019-02-28T07:42:42.970Z,7.30
2019-02-28T07:45:12.778Z,7.40
2019-02-28T07:47:41.230Z,7.40
2019-02-28T07:50:11.580Z,7.50
2019-02-28T07:52:40.004Z,7.60
2019-02-28T07:55:17.341Z,7.70
2019-02-28T07:57:51.303Z,7.80
2019-02-28T08:00:20.181Z,7.90
2019-02-28T08:02:48.680Z,8.00
2019-02-28T08:05:20.357Z,8.10
2019-02-28T08:07:52.040Z,8.20
2019-02-28T08:10:21.978Z,8.30
2019-02-28T08:12:50.478Z,8.40
2019-02-28T08:15:22.759Z,8.50
2019-02-28T08:17:51.311Z,8.60
2019-02-28T08:20:20.588Z,8.70
2019-02-28T08:22:49.089Z,8.80
2019-02-28T08:25:17.619Z,8.90
2019-02-28T08:27:46.100Z,9.00
2019-02-28T08:30:20.621Z,9.10
2019-02-28T08:32:49.302Z,9.20
2019-02-28T08:35:17.815Z,9.30
2019-02-28T08:37:46.317Z,9.50
2019-02-28T08:40:17.210Z,9.60
2019-02-28T08:42:45.638Z,9.70
2019-02-28T08:45:15.408Z,9.80
2019-02-28T08:47:43.922Z,9.90
2019-02-28T08:50:19.122Z,10.00
2019-02-28T08:52:45.944Z,10.10
2019-02-28T08:55:15.694Z,10.20
2019-02-28T08:57:44.136Z,10.40
2019-02-28T09:00:17.574Z,10.50
2019-02-28T09:02:46.022Z,10.70
2019-02-28T09:05:15.288Z,10.80
2019-02-28T09:07:50.768Z,10.90
2019-02-28T09:10:22.439Z,11.10
2019-02-28T09:12:51.327Z,11.20
2019-02-28T09:15:20.096Z,11.40
2019-02-28T09:17:49.591Z,11.60
2019-02-28T09:20:18.144Z,11.70
2019-02-28T09:22:46.681Z,11.90
2019-02-28T09:25:21.345Z,12.00
2019-02-28T09:27:48.350Z,12.20
2019-02-28T09:30:26.508Z,12.30
2019-02-28T09:32:57.639Z,12.50
2019-02-28T09:35:25.892Z,12.70
2019-02-28T09:37:54.323Z,12.80
2019-02-28T09:40:25.838Z,13.00
2019-02-28T09:42:53.093Z,13.20
2019-02-28T09:45:23.393Z,13.30
2019-02-28T09:47:51.846Z,13.50
2019-02-28T09:50:22.542Z,13.60
2019-02-28T09:52:52.027Z,13.70
2019-02-28T09:55:20.558Z,13.90
2019-02-28T09:57:53.820Z,14.10
2019-02-28T10:00:20.780Z,14.20
2019-02-28T10:02:49.311Z,14.30
2019-02-28T10:05:17.899Z,14.40
2019-02-28T10:07:46.413Z,14.50
2019-02-28T10:10:20.502Z,14.60
2019-02-28T10:12:47.569Z,14.80
2019-02-28T10:15:25.167Z,14.90
2019-02-28T10:17:53.649Z,15.10
2019-02-28T10:20:32.835Z,15.20
2019-02-28T10:23:01.332Z,15.40
2019-02-28T10:25:29.865Z,15.60
2019-02-28T10:28:01.711Z,15.80
2019-02-28T10:30:32.085Z,15.90
2019-02-28T10:32:59.067Z,16.10
2019-02-28T10:35:27.596Z,16.30
2019-02-28T10:37:58.393Z,16.40
2019-02-28T10:40:28.194Z,16.60
2019-02-28T10:42:56.857Z,16.80
2019-02-28T10:45:26.391Z,16.90
2019-02-28T10:47:54.846Z,17.00
2019-02-28T10:50:26.033Z,17.10
2019-02-28T10:52:54.743Z,17.20
2019-02-28T10:55:23.357Z,17.30
2019-02-28T10:57:51.925Z,17.50
2019-02-28T11:00:25.093Z,17.60
2019-02-28T11:02:55.333Z,17.80
2019-02-28T11:05:27.544Z,18.00
2019-02-28T11:07:56.197Z,18.10
2019-02-28T11:10:28.885Z,18.30
2019-02-28T11:12:57.924Z,18.40
2019-02-28T11:15:26.716Z,18.50
2019-02-28T11:17:55.170Z,18.70
2019-02-28T11:20:26.316Z,18.90
2019-02-28T11:22:53.901Z,18.90
2019-02-28T11:25:25.356Z,18.90
2019-02-28T11:27:54.676Z,19.00
2019-02-28T11:30:27.584Z,19.00
2019-02-28T11:32:56.162Z,19.10
2019-02-28T11:35:24.783Z,19.10
2019-02-28T11:37:53.364Z,19.20
2019-02-28T11:40:24.890Z,19.30
2019-02-28T11:42:53.526Z,19.40
2019-02-28T11:45:33.363Z,19.60
2019-02-28T11:48:04.258Z,19.70
2019-02-28T11:50:32.977Z,19.70
2019-02-28T11:53:04.947Z,19.60
2019-02-28T11:55:31.637Z,19.60
2019-02-28T11:58:00.218Z,19.60
2019-02-28T12:00:32.547Z,19.50
2019-02-28T12:03:02.063Z,19.50
2019-02-28T12:05:30.467Z,19.50
2019-02-28T12:07:58.911Z,19.60
2019-02-28T12:10:27.908Z,19.60
2019-02-28T12:12:56.517Z,19.70
2019-02-28T12:15:38.117Z,19.70
2019-02-28T12:18:06.821Z,19.60
2019-02-28T12:20:35.336Z,19.50
2019-02-28T12:23:03.829Z,19.40
2019-02-28T12:25:32.518Z,19.30
2019-02-28T12:28:02.905Z,19.30
2019-02-28T12:30:34.740Z,19.40
2019-02-28T12:33:03.146Z,19.50
2019-02-28T12:35:36.277Z,19.70
2019-02-28T12:38:01.774Z,19.90
2019-02-28T12:40:34.283Z,20.20
2019-02-28T12:43:05.434Z,20.40
2019-02-28T12:45:39.377Z,20.60
2019-02-28T12:48:08.002Z,20.70
2019-02-28T12:50:36.466Z,20.90
2019-02-28T12:53:05.238Z,20.90
2019-02-28T12:55:35.397Z,21.10
2019-02-28T12:58:03.976Z,21.20
2019-02-28T13:00:40.196Z,21.30
2019-02-28T13:03:09.326Z,21.40
2019-02-28T13:05:38.030Z,21.50
2019-02-28T13:08:07.080Z,21.50
2019-02-28T13:10:35.777Z,21.50
2019-02-28T13:13:06.983Z,21.50
2019-02-28T13:15:34.730Z,21.50
2019-02-28T13:18:07.616Z,21.60
2019-02-28T13:20:36.550Z,21.60
2019-02-28T13:23:05.509Z,21.70
2019-02-28T13:25:34.079Z,21.70
2019-02-28T13:28:02.609Z,21.70
2019-02-28T13:30:31.115Z,21.70
2019-02-28T13:32:59.740Z,21.70
2019-02-28T13:35:33.631Z,21.70
2019-02-28T13:38:02.146Z,21.60
2019-02-28T13:40:30.579Z,21.70
2019-02-28T13:42:59.062Z,21.60
2019-02-28T13:45:27.984Z,21.70
2019-02-28T13:47:56.501Z,21.70
2019-02-28T13:50:33.202Z,21.70
2019-02-28T13:53:17.046Z,21.80
2019-02-28T13:55:32.024Z,21.90
2019-02-28T13:58:00.523Z,21.90
2019-02-28T14:00:30.742Z,21.90
2019-02-28T14:03:09.493Z,21.80
2019-02-28T14:05:40.862Z,21.80
2019-02-28T14:08:11.206Z,21.70
2019-02-28T14:10:38.746Z,21.70
2019-02-28T14:13:07.482Z,21.70
2019-02-28T14:15:48.018Z,21.70
2019-02-28T14:18:16.439Z,21.70
2019-02-28T14:20:45.029Z,21.70
2019-02-28T14:23:13.589Z,21.60
2019-02-28T14:25:42.113Z,21.50
2019-02-28T14:28:10.644Z,21.50
2019-02-28T14:30:39.277Z,21.50
2019-02-28T14:33:08.275Z,21.50
2019-02-28T14:35:38.671Z,21.50
2019-02-28T14:38:07.035Z,21.40
2019-02-28T14:40:35.631Z,21.40
2019-02-28T14:43:04.217Z,21.20
2019-02-28T14:45:39.061Z,21.10
2019-02-28T14:48:08.973Z,21.00
2019-02-28T14:50:37.457Z,20.90
2019-02-28T14:53:06.049Z,20.80
2019-02-28T14:55:34.543Z,20.70
2019-02-28T14:58:03.086Z,20.60
2019-02-28T15:00:35.266Z,20.50
2019-02-28T15:03:03.947Z,20.40
2019-02-28T15:05:35.605Z,20.30
2019-02-28T15:08:04.092Z,20.20
2019-02-28T15:10:34.165Z,20.00
2019-02-28T15:13:04.873Z,19.90
2019-02-28T15:15:35.927Z,19.80
2019-02-28T15:18:04.396Z,19.70
2019-02-28T15:20:33.302Z,19.60
2019-02-28T15:23:01.931Z,19.50
2019-02-28T15:25:30.791Z,19.50
2019-02-28T15:27:59.473Z,19.40
2019-02-28T15:30:36.553Z,19.40
2019-02-28T15:33:05.277Z,19.30
2019-02-28T15:35:33.725Z,19.30
2019-02-28T15:38:02.210Z,19.30
2019-02-28T15:40:40.533Z,19.20
2019-02-28T15:43:09.381Z,19.10
2019-02-28T15:45:37.896Z,19.10
2019-02-28T15:48:06.501Z,19.10
2019-02-28T15:50:35.012Z,19.00
2019-02-28T15:53:03.516Z,18.90
2019-02-28T15:55:35.210Z,18.90
2019-02-28T15:58:02.661Z,18.80
2019-02-28T16:00:33.853Z,18.80
2019-02-28T16:03:02.457Z,18.70
2019-02-28T16:05:31.904Z,18.60
2019-02-28T16:08:00.508Z,18.50
2019-02-28T16:10:33.102Z,18.30
2019-02-28T16:13:01.687Z,18.30
2019-02-28T16:15:30.202Z,18.20
2019-02-28T16:17:58.781Z,18.10
2019-02-28T16:20:28.459Z,18.10
2019-02-28T16:22:57.719Z,18.00
2019-02-28T16:25:33.688Z,17.90
2019-02-28T16:28:04.408Z,17.90
2019-02-28T16:30:32.921Z,17.80
2019-02-28T16:33:01.675Z,17.70
2019-02-28T16:35:30.277Z,17.70
2019-02-28T16:37:58.867Z,17.70
2019-02-28T16:40:29.175Z,17.70
2019-02-28T16:42:57.608Z,17.60
2019-02-28T16:45:32.937Z,17.50
2019-02-28T16:48:03.178Z,17.50
2019-02-28T16:50:31.663Z,17.40
2019-02-28T16:53:00.207Z,17.30
2019-02-28T16:55:31.072Z,17.20
2019-02-28T16:57:58.953Z,17.20
2019-02-28T17:00:27.925Z,17.20
2019-02-28T17:02:56.476Z,17.10
2019-02-28T17:05:28.123Z,17.00
2019-02-28T17:07:55.177Z,16.90
2019-02-28T17:10:34.128Z,16.90
2019-02-28T17:13:16.075Z,16.80
2019-02-28T17:15:46.238Z,16.80
2019-02-28T17:18:18.479Z,16.80
2019-02-28T17:20:46.698Z,16.80
2019-02-28T17:23:15.218Z,16.80
2019-02-28T17:25:43.668Z,16.80
2019-02-28T17:28:15.281Z,16.70
2019-02-28T17:30:48.630Z,16.60
2019-02-28T17:33:17.050Z,16.50
2019-02-28T17:35:45.488Z,16.40
2019-02-28T17:38:14.113Z,16.30
2019-02-28T17:40:42.599Z,16.20
2019-02-28T17:43:11.082Z,16.20
2019-02-28T17:45:39.513Z,16.10
2019-02-28T17:48:22.646Z,16.00
2019-02-28T17:51:00.399Z,16.00
2019-02-28T17:53:37.798Z,16.00
2019-02-28T17:56:25.779Z,15.90
2019-02-28T17:58:57.311Z,15.80
2019-02-28T18:01:40.726Z,15.60
2019-02-28T18:04:29.447Z,15.50
2019-02-28T18:07:06.571Z,15.50
2019-02-28T18:09:44.935Z,15.50
2019-02-28T18:12:44.359Z,15.50
2019-02-28T18:15:16.709Z,15.40
2019-02-28T18:17:54.012Z,15.40
2019-02-28T18:20:40.105Z,15.30
2019-02-28T18:23:32.297Z,15.20
2019-02-28T18:26:31.252Z,15.20
2019-02-28T18:28:59.332Z,15.20
2019-02-28T18:31:27.875Z,15.10
2019-02-28T18:33:58.388Z,15.10
2019-02-28T18:36:29.003Z,15.20
2019-02-28T18:38:57.539Z,15.10
2019-02-28T18:41:26.056Z,15.00
2019-02-28T18:43:54.553Z,14.90
2019-02-28T18:46:23.008Z,14.90
2019-02-28T18:48:54.358Z,14.90
2019-02-28T18:51:21.646Z,14.90
2019-02-28T18:53:50.211Z,14.90
2019-02-28T18:56:18.799Z,14.80
2019-02-28T18:58:47.236Z,14.80
2019-02-28T19:01:15.826Z,14.70
2019-02-28T19:03:44.413Z,14.60
2019-02-28T19:06:12.919Z,14.60
2019-02-28T19:08:41.380Z,14.60
2019-02-28T19:11:09.838Z,14.60
2019-02-28T19:13:38.427Z,14.50
2019-02-28T19:16:06.912Z,14.50
2019-02-28T19:18:35.390Z,14.40
2019-02-28T19:21:03.905Z,14.30
2019-02-28T19:23:32.416Z,14.30
2019-02-28T19:26:00.901Z,14.20
2019-02-28T19:28:29.412Z,14.20
2019-02-28T19:30:57.962Z,14.20
2019-02-28T19:33:26.429Z,14.10
2019-02-28T19:35:54.964Z,14.10
2019-02-28T19:38:23.471Z,14.10
2019-02-28T19:40:52.053Z,14.10
2019-02-28T19:43:20.661Z,14.10
2019-02-28T19:45:52.227Z,14.10
2019-02-28T19:48:20.949Z,14.10
2019-02-28T19:50:49.404Z,14.20
2019-02-28T19:53:18.197Z,14.20
2019-02-28T19:55:47.140Z,14.10
2019-02-28T19:58:15.810Z,14.20
2019-02-28T20:00:44.314Z,14.20
2019-02-28T20:03:12.937Z,14.20
2019-02-28T20:05:41.376Z,14.20
2019-02-28T20:08:09.874Z,14.30
2019-02-28T20:10:38.479Z,14.30
2019-02-28T20:13:06.966Z,14.30
2019-02-28T20:15:37.108Z,14.30
2019-02-28T20:18:05.812Z,14.30
2019-02-28T20:20:34.310Z,14.30
2019-02-28T20:23:02.861Z,14.30
2019-02-28T20:25:31.361Z,14.30
2019-02-28T20:27:59.967Z,14.20
2019-02-28T20:30:28.525Z,14.20
2019-02-28T20:32:57.020Z,14.20
2019-02-28T20:35:26.764Z,14.20
2019-02-28T20:37:55.686Z,14.20
2019-02-28T20:40:37.260Z,14.70
2019-02-28T20:43:05.966Z,15.50
2019-02-28T20:45:34.577Z,16.10
2019-02-28T20:48:04.234Z,16.50
2019-02-28T20:50:41.400Z,16.70
2019-02-28T20:53:09.919Z,16.90
2019-02-28T20:55:38.444Z,17.20
2019-02-28T20:58:06.947Z,17.40
2019-02-28T21:00:35.487Z,17.40
2019-02-28T21:03:04.073Z,17.50
2019-02-28T21:05:32.678Z,17.50
2019-02-28T21:08:01.108Z,17.40
2019-02-28T21:10:29.581Z,17.50
2019-02-28T21:12:58.058Z,17.60
2019-02-28T21:15:26.525Z,17.50
2019-02-28T21:17:54.943Z,17.50
2019-02-28T21:20:23.423Z,17.40
2019-02-28T21:22:52.006Z,17.20
2019-02-28T21:25:20.653Z,17.20
2019-02-28T21:27:50.631Z,17.10
2019-02-28T21:30:23.732Z,17.00
2019-02-28T21:32:52.317Z,17.00
2019-02-28T21:35:21.255Z,17.00
2019-02-28T21:37:50.091Z,17.00
2019-02-28T21:40:19.641Z,16.90
2019-02-28T21:42:48.248Z,16.90
2019-02-28T21:45:18.543Z,17.00
2019-02-28T21:47:47.076Z,17.00
2019-02-28T21:50:18.662Z,16.90
2019-02-28T21:52:47.248Z,16.70
2019-02-28T21:55:16.640Z,16.70
2019-02-28T21:57:45.277Z,16.50
2019-02-28T22:00:19.370Z,16.60
2019-02-28T22:02:47.836Z,16.70
2019-02-28T22:05:16.340Z,16.60
2019-02-28T22:07:45.032Z,16.40
2019-02-28T22:10:14.957Z,16.00
2019-02-28T22:12:43.543Z,15.80
2019-02-28T22:15:22.677Z,15.50
2019-02-28T22:17:51.116Z,15.40
2019-02-28T22:20:19.636Z,15.20
2019-02-28T22:22:48.165Z,15.00
2019-02-28T22:25:17.304Z,14.80
2019-02-28T22:27:45.858Z,14.70
2019-02-28T22:30:33.577Z,14.60
2019-02-28T22:33:03.797Z,14.50
2019-02-28T22:35:33.851Z,14.40
2019-02-28T22:38:02.328Z,14.30
2019-02-28T22:40:30.854Z,14.20
2019-02-28T22:42:59.383Z,14.20
2019-02-28T22:45:27.820Z,14.10
2019-02-28T22:47:56.257Z,14.10
2019-02-28T22:50:24.721Z,14.00
2019-02-28T22:52:54.273Z,14.00
2019-02-28T22:55:22.842Z,14.00
2019-02-28T22:57:51.266Z,14.00
2019-02-28T23:00:27.060Z,13.90
2019-02-28T23:02:55.554Z,13.80
2019-02-28T23:05:23.997Z,13.80
2019-02-28T23:07:52.424Z,13.80
2019-02-28T23:10:21.013Z,13.80
2019-02-28T23:12:49.477Z,13.70
2019-02-28T23:15:19.196Z,13.60
2019-02-28T23:17:47.616Z,13.50
2019-02-28T23:20:16.028Z,13.50
2019-02-28T23:22:44.469Z,13.50
2019-02-28T23:25:12.921Z,13.50
2019-02-28T23:27:41.352Z,13.50
2019-02-28T23:30:15.779Z,13.50
2019-02-28T23:32:47.264Z,13.50
2019-02-28T23:35:24.669Z,13.40
2019-02-28T23:37:53.078Z,13.50
2019-02-28T23:40:21.545Z,13.50
2019-02-28T23:42:49.970Z,13.40
2019-02-28T23:45:18.418Z,13.30
2019-02-28T23:47:46.863Z,13.30
2019-02-28T23:50:15.492Z,13.20
2019-02-28T23:52:43.986Z,13.20
2019-02-28T23:55:13.483Z,13.20
2019-02-28T23:57:41.931Z,13.10
